ADDS METAR Data INFO
IDs: Format: Raw Decoded Include TAF

Data at: 1515 UTC 11 Dec 2017

PADK 111456Z AUTO 01023G30KT 10SM FEW014 BKN046 OVC060 02/M04 A2948 RMK AO2 PK WND 01035/1420 RAB27E31SNE08B31E46 SLP981 P0000 60000 T00171039 53014 FZRANO
PADK 111356Z AUTO 35017G26KT 4SM -SN BR FEW013 SCT026 BKN055 01/M01 A2946 RMK AO2 PK WND 01031/1321 RAE18B52E56UPB50E52SNB56 SLP975 P0000 T00061011 FZRANO
PADK 111256Z AUTO 36022G32KT 10SM -RA FEW015 BKN048 OVC065 02/M02 A2944 RMK AO2 PK WND 01032/1253 UPB25E27SNB01E14 SLP968 P0000 T00171017 FZRANO
PADK 111253Z AUTO 01023G32KT 10SM -RA FEW019 BKN040 OVC060 02/M02 A2943 RMK AO2 PK WND 01032/1253 UPB25E27SNB01E14 P0000 FZRANO
PADK 111203Z AUTO 02016G21KT 9SM -SN SCT016 BKN023 OVC034 02/M01 A2941 RMK AO2 RAE01SNB01 P0000 FZRANO
PADK 111103Z AUTO 01020G28KT 10SM -RA SCT017 BKN047 OVC070 02/M01 A2939 RMK AO2 PK WND 02028/1101 P0000 FZRANO
PADK 111056Z AUTO 01021G29KT 10SM -RA BKN017 BKN033 OVC049 02/M01 A2939 RMK AO2 PK WND 02029/1048 UPE10RAB10E25B42SNB25E42 SLP952 P0002 T00171011 FZRANO
PADK 110956Z AUTO 01018G26KT 10SM UP BKN020 OVC027 02/M01 A2938 RMK AO2 PK WND 01026/0954 UPB11E23B55 SLP948 P0000 T00221006 400440017 FZRANO
PADK 110856Z AUTO 03019G25KT 10SM BKN021 BKN025 OVC037 03/00 A2936 RMK AO2 RAE51UPB16E19 SLP941 P0001 60002 T00280000 51026
PADK 110804Z AUTO 02017G24KT 8SM -RA SCT014 BKN020 OVC043 02/01 A2934 RMK AO2 P0000 FZRANO
PADK 110756Z AUTO 03019G25KT 6SM -RA BR BKN014 BKN022 OVC040 02/01 A2934 RMK AO2 PK WND 04031/0731 UPE53RAB53 SLP934 P0001 T00220006 FZRANO
PADK 110656Z AUTO 03021G27KT 10SM UP FEW017 BKN026 OVC060 03/01 A2931 RMK AO2 PK WND 03027/0649 UPB55 SLP924 P0000 T00280006
PADK 110615Z AUTO 03021KT 10SM SCT019 BKN024 OVC065 03/01 A2929 RMK AO2
PADK 110556Z AUTO 03018KT 10SM SCT019 BKN034 OVC065 03/01 A2928 RMK AO2 PK WND 03027/0526 RAB33E34UPB34E46 SLP915 P0000 60001 T00330006 10044 20028 51012
PADK 110554Z AUTO 03017KT 10SM SCT017 BKN034 OVC065 03/01 A2928 RMK AO2 PK WND 03027/0526 RAB33E34UPB34E46 P0000
PADK 110507Z AUTO 03017G24KT 10SM SCT017 BKN022 OVC060 03/01 A2927 RMK AO2
PADK 110456Z AUTO 03017KT 10SM FEW015 SCT022 OVC060 03/01 A2926 RMK AO2 PK WND 03026/0445 RAB15E34 SLP909 P0000 T00330011
PADK 110447Z AUTO 03019G26KT 10SM SCT015 OVC065 03/01 A2926 RMK AO2 PK WND 03026/0445 RAB15E34 P0000
PADK 110356Z AUTO 04020G26KT 10SM BKN016 OVC023 03/02 A2925 RMK AO2 PK WND 03026/0349 UPB07E25RAB25E39 SLP903 P0001 T00330017
PADK 110256Z AUTO 04017G20KT 10SM BKN013 OVC034 03/02 A2923 RMK AO2 SLP897 60000 T00330017 53012
PADK 110245Z AUTO 03014KT 10SM BKN013 BKN019 OVC034 03/01 A2923 RMK AO2
PADK 110236Z AUTO 03013KT 10SM FEW013 SCT017 OVC034 03/01 A2922 RMK AO2
PADK 110212Z AUTO 04014KT 10SM BKN013 OVC026 03/02 A2921 RMK AO2
PADK 110156Z AUTO 03014KT 10SM FEW013 BKN025 OVC030 03/02 A2921 RMK AO2 RAB05E18 SLP892 P0000 T00330017
PADK 110056Z AUTO 03014KT 10SM FEW013 BKN022 OVC037 04/02 A2920 RMK AO2 SLP888 T00390017
PADK 102356Z AUTO 04018KT 10SM BKN025 OVC033 04/01 A2919 RMK AO2 SLP885 60000 T00440011 10044 20028 51004
PADK 102344Z AUTO 05014KT 10SM SCT025 OVC033 04/01 A2919 RMK AO2
PADK 102256Z AUTO 05009KT 10SM OVC020 04/02 A2919 RMK AO2 SLP885 T00390017
PADK 102156Z AUTO 05012KT 9SM FEW023 OVC029 04/02 A2919 RMK AO2 SLP883 T00390017
PADK 102056Z AUTO 05011KT 10SM BKN027 OVC040 04/02 A2918 RMK AO2 SLP881 60000 T00390017 50002
PADK 101956Z AUTO 02008KT 10SM OVC022 03/01 A2918 RMK AO2 SLP882 T00280006
PADK 101929Z AUTO 07011KT 10SM BKN022 BKN030 OVC043 04/01 A2918 RMK AO2
PADK 101856Z AUTO 06015KT 10SM SCT039 BKN055 03/01 A2918 RMK AO2 RAE08 SLP880 P0000 T00330011
PADK 101844Z AUTO 07013KT 10SM FEW018 BKN039 OVC060 03/01 A2917 RMK AO2 RAE08 P0000
PADK 101756Z AUTO 09015KT 10SM -RA SCT017 BKN025 OVC030 03/01 A2917 RMK AO2 RAB56 SLP879 P0000 60000 T00280011 10033 20022 55000
PADK 101726Z AUTO 08015KT 10SM FEW018 BKN025 BKN046 03/01 A2917 RMK AO2
PADK 101710Z AUTO 06013KT 10SM FEW016 SCT022 BKN041 03/01 A2916 RMK AO2
PADK 101656Z AUTO 07015KT 10SM BKN016 BKN026 03/01 A2916 RMK AO2 UPB03E09RAB09E24 SLP874 P0000 T00280006
PADK 101556Z AUTO 09017KT 10SM SCT015 BKN026 OVC040 03/01 A2916 RMK AO2 UPE32RAB05E15 SLP875 P0000 T00280006
PADK 101456Z AUTO 07016KT 10SM UP SCT015 BKN020 OVC028 03/01 A2917 RMK AO2 RAE45UPB29 SLP879 P0000 60000 T00280006 56009
PADK 101435Z AUTO 09016G24KT 10SM -RA SCT016 BKN027 OVC047 02/01 A2918 RMK AO2 UPB29E31 P0000 FZRANO
PADK 101424Z AUTO 08017KT 10SM FEW014 BKN033 OVC046 02/01 A2918 RMK AO2 RAE17 P0000 FZRANO
PADK 101356Z AUTO 09016KT 10SM -RA BKN015 BKN021 OVC029 02/01 A2918 RMK AO2 UPB41E50RAB50 SLP881 P0000 T00220006 FZRANO
PADK 101313Z AUTO 09018KT 10SM BKN024 OVC030 03/00 A2918 RMK AO2
PADK 101256Z AUTO 10014KT 10SM SCT024 OVC032 03/00 A2919 RMK AO2 SLP883 T00280000
PADK 101211Z AUTO 08020KT 10SM BKN030 OVC050 03/00 A2919 RMK AO2
PADK 101156Z AUTO 10014KT 10SM BKN027 OVC034 03/00 A2920 RMK AO2 RAB00E15 SLP888 P0000 60001 70001 T00280000 10033 20017 58028
PADK 101106Z AUTO 10011KT 10SM -RA SCT023 OVC029 03/00 A2923 RMK AO2 RAB00 P0000
PADK 101056Z AUTO 10012KT 10SM FEW014 BKN030 OVC044 03/00 A2923 RMK AO2 PK WND 08026/1014 RAB25E41 SLP899 P0001 T00280000
PADK 101023Z AUTO 10017KT 10SM SCT021 BKN026 OVC038 02/00 A2925 RMK AO2 PK WND 08026/1014 FZRANO
PADK 100956Z AUTO 09018KT 10SM FEW026 BKN035 OVC042 03/M01 A2925 RMK AO2 RAE34 SLP906 P0000 T00331011 400331011
PADK 100925Z AUTO 08013KT 10SM -RA FEW009 BKN032 OVC050 02/00 A2927 RMK AO2 P0000 FZRANO
PADK 100923Z AUTO 08013KT 10SM -RA FEW010 BKN019 OVC032 02/00 A2927 RMK AO2 P0000 FZRANO
PADK 100915Z AUTO 10018KT 10SM -RA FEW009 BKN030 OVC090 02/00 A2928 RMK AO2 P0000 FZRANO
PADK 100907Z AUTO 09015KT 10SM FEW013 BKN028 OVC090 02/M01 A2928 RMK AO2 RAE0857 FZRANO
PADK 100856Z AUTO 09017KT 10SM -RA FEW013 SCT023 OVC033 02/00 A2929 RMK AO2 PK WND 11028/0841 RAE04B42 SLP917 P0000 60000 T00220000 58017 FZRANO
PADK 100821Z AUTO 08013KT 10SM FEW009 BKN033 OVC047 02/00 A2930 RMK AO2 RAE04 P0000 FZRANO
PADK 100812Z AUTO 08015KT 10SM FEW009 BKN027 OVC050 02/00 A2931 RMK AO2 RAE04 P0000 FZRANO
PADK 100756Z AUTO 09015KT 10SM -RA FEW018 SCT027 BKN034 02/00 A2931 RMK AO2 PK WND 11028/0746 RAB13E22B50UPB48E50 SLP926 P0000 T00220000 FZRANO
PADK 100720Z AUTO 08013KT 10SM -RA FEW021 BKN036 OVC047 02/00 A2933 RMK AO2 RAB13 P0000 FZRANO
PADK 100713Z AUTO 08016G23KT 10SM -RA SCT022 BKN027 OVC042 02/M01 A2933 RMK AO2 RAB13 P0000 FZRANO
PADK 100656Z AUTO 08014KT 10SM SCT028 OVC036 03/M01 A2934 RMK AO2 SLP934 T00281006
PADK 100654Z AUTO 08014KT 10SM BKN028 OVC036 03/M01 A2934 RMK AO2
PADK 100556Z AUTO 10015KT 10SM OVC033 03/M02 A2937 RMK AO2 SLP944 T00331017 10033 20028 56041
PADK 100456Z AUTO 10010KT 10SM FEW027 BKN034 03/M02 A2940 RMK AO2 SLP955 T00281017
PADK 100441Z AUTO 10012KT 10SM SCT027 BKN034 03/M02 A2941 RMK AO2
PADK 100356Z AUTO 10010KT 10SM FEW025 SCT031 03/M02 A2944 RMK AO2 SLP968 T00281017